Historique des mesures à Cassis (13260), France
Quotidien Résumé Juillet 29, 2017 Unités:  Métrique    US   Métrique/US
« Précédent (Jour)
Suivant (Jour) »
Quotidien Hebdomadaire Mensuel Annuel Période au choix
  Maximum: Minimum: Moyenne:
Température: TemperatureC °C 21.9 °C 24.6 °C
Point de rosée: DewpointC °C 14.8 °C 17.4 °C
Humidité: Humidity % 58 % 61 %
Vitesse du vent: 0 km/h 0 km/h 4.5 km/h
Rafales: 0 km/h - -
Vent:- - SSW
Pression: PressurehPa hPa 1009.7 hPa -
Précipitations: 0.0 mm    
Historical Graphs
 
 
Mesures pour : Juillet 29, 2017
Heure Temperature Point de rosée Pression Vent Vitesse du vent Rafales Humidité Pluie (par heure) Conditions
TemperatureC °C DewpointC °C PressurehPa hPa Calm     Humidity % HourlyPrecipMM mm SoftwareType W/m2
00:11 23.9 °C 16.7 °C 1010.7 hPa Calm     64 % 0.0 mm open2300-1.11 W/m2
01:11 23.1 °C 16.4 °C 1010.4 hPa Calm     66 % 0.0 mm open2300-1.11 W/m2
02:11 22.6 °C 15.4 °C 1010.4 hPa Calm     64 % 0.0 mm open2300-1.11 W/m2
03:11 23.3 °C 15.8 °C 1009.7 hPa NW 3.4 km/h 3.4 km/h 63 % 0.0 mm open2300-1.11 W/m2
04:11 22.9 °C 15.7 °C 1009.7 hPa Calm   6.9 km/h 64 % 0.0 mm open2300-1.11 W/m2
05:11 22.5 °C 15.1 °C 1009.7 hPa NW 13.2 km/h 13.2 km/h 63 % 0.0 mm open2300-1.11 W/m2
06:11 22.0 °C 14.9 °C 1010.4 hPa Calm   1.8 km/h 64 % 0.0 mm open2300-1.11 W/m2
07:11 21.9 °C 14.8 °C 1010.7 hPa Calm     64 % 0.0 mm open2300-1.11 W/m2
08:11 25.2 °C 16.9 °C 1011.4 hPa Calm   3.4 km/h 60 % 0.0 mm open2300-1.11 W/m2
09:11 24.7 °C 17.4 °C 1011.7 hPa SE 5.1 km/h 9.8 km/h 64 % 0.0 mm open2300-1.11 W/m2
10:11 25.3 °C 18.0 °C 1012.1 hPa Calm   2.3 km/h 64 % 0.0 mm open2300-1.11 W/m2
11:11 28.8 °C 20.6 °C 1012.4 hPa SW 10.9 km/h 10.9 km/h 61 % 0.0 mm open2300-1.11 W/m2
12:11 29.9 °C 21.0 °C 1012.1 hPa SSW 12.7 km/h 12.7 km/h 59 % 0.0 mm open2300-1.11 W/m2
13:11 29.6 °C 20.4 °C 1012.4 hPa ESE 3.4 km/h 15 km/h 58 % 0.0 mm open2300-1.11 W/m2
14:11 29.5 °C 20.9 °C 1012.8 hPa South 7.6 km/h 11.6 km/h 60 % 0.0 mm open2300-1.11 W/m2
15:11 29.8 °C 21.2 °C 1012.1 hPa WSW 8.9 km/h 9.3 km/h 60 % 0.0 mm open2300-1.11 W/m2
16:11 28.5 °C 20.8 °C 1012.1 hPa Calm   11.6 km/h 63 % 0.0 mm open2300-1.11 W/m2
17:11 28.2 °C 20.2 °C 1012.1 hPa WSW 19.6 km/h 19.6 km/h 62 % 0.0 mm open2300-1.11 W/m2
18:11 27.3 °C 19.9 °C 1011.7 hPa SSW 14.5 km/h 14.5 km/h 64 % 0.0 mm open2300-1.11 W/m2
19:11 26.5 °C 19.6 °C 1011.7 hPa WNW 9.3 km/h 19.2 km/h 66 % 0.0 mm open2300-1.11 W/m2
20:11 25.5 °C 18.9 °C 1011.4 hPa Calm   5.6 km/h 67 % 0.0 mm open2300-1.11 W/m2
21:11 24.9 °C 18.3 °C 1011.7 hPa SW 2.9 km/h 2.9 km/h 67 % 0.0 mm open2300-1.11 W/m2
22:11 24.1 °C 17.8 °C 1012.1 hPa Calm     68 % 0.0 mm open2300-1.11 W/m2
23:11 23.8 °C 18.0 °C 1012.1 hPa NNE 2.3 km/h 2.3 km/h 70 % 0.0 mm open2300-1.11 W/m2
Observations météo à CASSIS
WU-History script by Weather Underground - 1 mb